sensor_id;sensor_type;location;lat;lon;timestamp;temperature;humidity
4934;DHT22;2482;49.154;8.254;2022-12-11T00:00:25;-2.70;99.90
4934;DHT22;2482;49.154;8.254;2022-12-11T00:02:52;-2.60;99.90
4934;DHT22;2482;49.154;8.254;2022-12-11T00:05:19;-2.50;99.90
4934;DHT22;2482;49.154;8.254;2022-12-11T00:07:46;-2.70;99.90
4934;DHT22;2482;49.154;8.254;2022-12-11T00:10:13;-2.70;99.90
4934;DHT22;2482;49.154;8.254;2022-12-11T00:12:40;-2.80;99.90
4934;DHT22;2482;49.154;8.254;2022-12-11T00:15:08;-2.80;99.90
4934;DHT22;2482;49.154;8.254;2022-12-11T00:17:35;-2.80;99.90
4934;DHT22;2482;49.154;8.254;2022-12-11T00:20:03;-2.70;99.90
4934;DHT22;2482;49.154;8.254;2022-12-11T00:22:30;-2.70;99.90
4934;DHT22;2482;49.154;8.254;2022-12-11T00:24:57;-2.70;99.90
4934;DHT22;2482;49.154;8.254;2022-12-11T00:27:24;-2.80;99.90
4934;DHT22;2482;49.154;8.254;2022-12-11T00:29:51;-2.80;99.90
4934;DHT22;2482;49.154;8.254;2022-12-11T00:32:18;-2.90;99.90
4934;DHT22;2482;49.154;8.254;2022-12-11T00:34:45;-3.00;99.90
4934;DHT22;2482;49.154;8.254;2022-12-11T00:37:12;-3.10;99.90
4934;DHT22;2482;49.154;8.254;2022-12-11T00:39:39;-3.10;99.90
4934;DHT22;2482;49.154;8.254;2022-12-11T00:42:07;-3.10;99.90
4934;DHT22;2482;49.154;8.254;2022-12-11T00:44:34;-3.20;99.90
4934;DHT22;2482;49.154;8.254;2022-12-11T00:47:02;-3.10;99.90
4934;DHT22;2482;49.154;8.254;2022-12-11T00:49:29;-3.20;99.90
4934;DHT22;2482;49.154;8.254;2022-12-11T00:51:57;-3.10;99.90
4934;DHT22;2482;49.154;8.254;2022-12-11T00:54:24;-3.00;99.90
4934;DHT22;2482;49.154;8.254;2022-12-11T00:56:51;-3.20;99.90
4934;DHT22;2482;49.154;8.254;2022-12-11T00:59:18;-3.50;99.90
4934;DHT22;2482;49.154;8.254;2022-12-11T01:01:45;-3.40;99.90
4934;DHT22;2482;49.154;8.254;2022-12-11T01:04:12;-3.30;99.90
4934;DHT22;2482;49.154;8.254;2022-12-11T01:06:39;-3.40;99.90
4934;DHT22;2482;49.154;8.254;2022-12-11T01:09:05;-3.50;99.90
4934;DHT22;2482;49.154;8.254;2022-12-11T01:11:51;-3.40;99.90
4934;DHT22;2482;49.154;8.254;2022-12-11T01:14:18;-3.20;99.90
4934;DHT22;2482;49.154;8.254;2022-12-11T01:16:45;-2.90;99.90
4934;DHT22;2482;49.154;8.254;2022-12-11T01:19:12;-2.80;99.90
4934;DHT22;2482;49.154;8.254;2022-12-11T01:21:39;-2.80;99.90
4934;DHT22;2482;49.154;8.254;2022-12-11T01:24:06;-2.80;99.90
4934;DHT22;2482;49.154;8.254;2022-12-11T01:26:33;-2.80;99.90
4934;DHT22;2482;49.154;8.254;2022-12-11T01:29:00;-2.70;99.90
4934;DHT22;2482;49.154;8.254;2022-12-11T01:31:27;-2.80;99.90
4934;DHT22;2482;49.154;8.254;2022-12-11T01:33:55;-2.80;99.90
4934;DHT22;2482;49.154;8.254;2022-12-11T01:36:22;-2.80;99.90
4934;DHT22;2482;49.154;8.254;2022-12-11T01:38:50;-2.90;99.90
4934;DHT22;2482;49.154;8.254;2022-12-11T01:41:17;-2.90;99.90
4934;DHT22;2482;49.154;8.254;2022-12-11T01:44:03;-2.90;99.90
4934;DHT22;2482;49.154;8.254;2022-12-11T01:46:32;-2.60;99.90
4934;DHT22;2482;49.154;8.254;2022-12-11T01:49:05;-2.40;99.90
4934;DHT22;2482;49.154;8.254;2022-12-11T01:51:38;-2.50;99.90
4934;DHT22;2482;49.154;8.254;2022-12-11T01:54:10;-2.70;99.90
4934;DHT22;2482;49.154;8.254;2022-12-11T01:56:38;-2.80;99.90
4934;DHT22;2482;49.154;8.254;2022-12-11T01:59:08;-2.90;99.90
4934;DHT22;2482;49.154;8.254;2022-12-11T02:01:43;-3.00;99.90
4934;DHT22;2482;49.154;8.254;2022-12-11T02:04:12;-2.80;99.90
4934;DHT22;2482;49.154;8.254;2022-12-11T02:06:48;-2.90;99.90
4934;DHT22;2482;49.154;8.254;2022-12-11T02:09:21;-2.90;99.90
4934;DHT22;2482;49.154;8.254;2022-12-11T02:25:42;-2.40;99.90
4934;DHT22;2482;49.154;8.254;2022-12-11T02:28:42;-2.30;99.90
4934;DHT22;2482;49.154;8.254;2022-12-11T02:33:59;-2.20;99.90
4934;DHT22;2482;49.154;8.254;2022-12-11T02:36:40;-2.20;99.90
4934;DHT22;2482;49.154;8.254;2022-12-11T02:39:11;-2.10;99.90
4934;DHT22;2482;49.154;8.254;2022-12-11T02:41:43;-2.20;99.90
4934;DHT22;2482;49.154;8.254;2022-12-11T02:44:18;-2.10;99.90
4934;DHT22;2482;49.154;8.254;2022-12-11T02:46:50;-2.00;99.90
4934;DHT22;2482;49.154;8.254;2022-12-11T02:49:19;-1.90;99.90
4934;DHT22;2482;49.154;8.254;2022-12-11T02:51:46;-1.90;99.90
4934;DHT22;2482;49.154;8.254;2022-12-11T02:54:20;-1.90;99.90
4934;DHT22;2482;49.154;8.254;2022-12-11T02:56:59;-1.90;99.90
4934;DHT22;2482;49.154;8.254;2022-12-11T02:59:41;-1.90;99.90
4934;DHT22;2482;49.154;8.254;2022-12-11T03:02:13;-1.70;99.90
4934;DHT22;2482;49.154;8.254;2022-12-11T03:04:42;-1.80;99.90
4934;DHT22;2482;49.154;8.254;2022-12-11T03:07:24;-1.90;99.90
4934;DHT22;2482;49.154;8.254;2022-12-11T03:09:53;-1.90;99.90
4934;DHT22;2482;49.154;8.254;2022-12-11T03:12:24;-2.00;99.90
4934;DHT22;2482;49.154;8.254;2022-12-11T03:14:56;-1.80;99.90
4934;DHT22;2482;49.154;8.254;2022-12-11T03:20:44;-1.80;99.90
4934;DHT22;2482;49.154;8.254;2022-12-11T03:23:21;-1.70;99.90
4934;DHT22;2482;49.154;8.254;2022-12-11T03:26:04;-1.60;99.90
4934;DHT22;2482;49.154;8.254;2022-12-11T03:28:46;-1.50;99.90
4934;DHT22;2482;49.154;8.254;2022-12-11T03:31:44;-1.70;99.90
4934;DHT22;2482;49.154;8.254;2022-12-11T03:34:24;-1.70;99.90
4934;DHT22;2482;49.154;8.254;2022-12-11T03:36:56;-1.80;99.90
4934;DHT22;2482;49.154;8.254;2022-12-11T03:39:30;-1.70;99.90
4934;DHT22;2482;49.154;8.254;2022-12-11T03:42:01;-1.70;99.90
4934;DHT22;2482;49.154;8.254;2022-12-11T03:44:32;-1.60;99.90
4934;DHT22;2482;49.154;8.254;2022-12-11T03:47:02;-1.70;99.90
4934;DHT22;2482;49.154;8.254;2022-12-11T03:49:37;-1.80;99.90
4934;DHT22;2482;49.154;8.254;2022-12-11T03:52:06;-1.70;99.90
4934;DHT22;2482;49.154;8.254;2022-12-11T03:54:35;-1.70;99.90
4934;DHT22;2482;49.154;8.254;2022-12-11T03:57:05;-1.50;99.90
4934;DHT22;2482;49.154;8.254;2022-12-11T03:59:33;-1.50;99.90
4934;DHT22;2482;49.154;8.254;2022-12-11T04:02:01;-1.70;99.90
4934;DHT22;2482;49.154;8.254;2022-12-11T04:04:37;-1.50;99.90
4934;DHT22;2482;49.154;8.254;2022-12-11T04:07:06;-1.60;99.90
4934;DHT22;2482;49.154;8.254;2022-12-11T04:09:34;-1.70;99.90
4934;DHT22;2482;49.154;8.254;2022-12-11T04:12:02;-1.60;99.90
4934;DHT22;2482;49.154;8.254;2022-12-11T04:14:29;-1.40;99.90
4934;DHT22;2482;49.154;8.254;2022-12-11T04:17:14;-1.70;99.90
4934;DHT22;2482;49.154;8.254;2022-12-11T04:20:01;-1.60;99.90
4934;DHT22;2482;49.154;8.254;2022-12-11T04:22:45;-1.60;99.90
4934;DHT22;2482;49.154;8.254;2022-12-11T04:25:30;-1.70;99.90
4934;DHT22;2482;49.154;8.254;2022-12-11T04:27:57;-1.80;99.90
4934;DHT22;2482;49.154;8.254;2022-12-11T04:30:24;-1.60;99.90
4934;DHT22;2482;49.154;8.254;2022-12-11T04:32:59;-1.50;99.90
4934;DHT22;2482;49.154;8.254;2022-12-11T04:35:26;-1.50;99.90
4934;DHT22;2482;49.154;8.254;2022-12-11T04:37:53;-1.50;99.90
4934;DHT22;2482;49.154;8.254;2022-12-11T04:40:20;-1.70;99.90
4934;DHT22;2482;49.154;8.254;2022-12-11T04:42:48;-1.60;99.90
4934;DHT22;2482;49.154;8.254;2022-12-11T04:45:15;-1.50;99.90
4934;DHT22;2482;49.154;8.254;2022-12-11T04:47:43;-1.50;99.90
4934;DHT22;2482;49.154;8.254;2022-12-11T04:50:11;-1.50;99.90
4934;DHT22;2482;49.154;8.254;2022-12-11T04:52:40;-1.50;99.90
4934;DHT22;2482;49.154;8.254;2022-12-11T04:55:08;-1.50;99.90
4934;DHT22;2482;49.154;8.254;2022-12-11T04:57:36;-1.60;99.90
4934;DHT22;2482;49.154;8.254;2022-12-11T05:00:09;-1.60;99.90
4934;DHT22;2482;49.154;8.254;2022-12-11T05:02:39;-1.40;99.90
4934;DHT22;2482;49.154;8.254;2022-12-11T05:05:08;-1.40;99.90
4934;DHT22;2482;49.154;8.254;2022-12-11T05:07:36;-1.40;99.90
4934;DHT22;2482;49.154;8.254;2022-12-11T05:10:04;-1.40;99.90
4934;DHT22;2482;49.154;8.254;2022-12-11T05:12:32;-1.30;99.90
4934;DHT22;2482;49.154;8.254;2022-12-11T05:14:59;-1.30;99.90
4934;DHT22;2482;49.154;8.254;2022-12-11T05:17:26;-1.40;99.90
4934;DHT22;2482;49.154;8.254;2022-12-11T05:19:53;-1.30;99.90
4934;DHT22;2482;49.154;8.254;2022-12-11T05:22:20;-1.30;99.90
4934;DHT22;2482;49.154;8.254;2022-12-11T05:24:47;-1.20;99.90
4934;DHT22;2482;49.154;8.254;2022-12-11T05:27:14;-1.30;99.90
4934;DHT22;2482;49.154;8.254;2022-12-11T05:29:41;-1.40;99.90
4934;DHT22;2482;49.154;8.254;2022-12-11T05:32:08;-1.30;99.90
4934;DHT22;2482;49.154;8.254;2022-12-11T05:34:36;-1.40;99.90
4934;DHT22;2482;49.154;8.254;2022-12-11T05:37:03;-1.30;99.90
4934;DHT22;2482;49.154;8.254;2022-12-11T05:39:30;-1.30;99.90
4934;DHT22;2482;49.154;8.254;2022-12-11T05:41:59;-1.30;99.90
4934;DHT22;2482;49.154;8.254;2022-12-11T05:44:27;-1.40;99.90
4934;DHT22;2482;49.154;8.254;2022-12-11T05:46:53;-1.40;99.90
4934;DHT22;2482;49.154;8.254;2022-12-11T05:49:20;-1.40;99.90
4934;DHT22;2482;49.154;8.254;2022-12-11T05:51:56;-1.50;99.90
4934;DHT22;2482;49.154;8.254;2022-12-11T05:54:22;-1.50;99.90
4934;DHT22;2482;49.154;8.254;2022-12-11T05:56:49;-1.60;99.90
4934;DHT22;2482;49.154;8.254;2022-12-11T05:59:17;-1.60;99.90
4934;DHT22;2482;49.154;8.254;2022-12-11T06:01:45;-1.60;99.90
4934;DHT22;2482;49.154;8.254;2022-12-11T06:04:12;-1.60;99.90
4934;DHT22;2482;49.154;8.254;2022-12-11T06:06:40;-1.60;99.90
4934;DHT22;2482;49.154;8.254;2022-12-11T06:09:12;-1.70;99.90
4934;DHT22;2482;49.154;8.254;2022-12-11T06:11:40;-1.70;99.90
4934;DHT22;2482;49.154;8.254;2022-12-11T06:14:09;-1.70;99.90
4934;DHT22;2482;49.154;8.254;2022-12-11T06:16:37;-1.60;99.90
4934;DHT22;2482;49.154;8.254;2022-12-11T06:19:04;-1.70;99.90
4934;DHT22;2482;49.154;8.254;2022-12-11T06:21:32;-1.60;99.90
4934;DHT22;2482;49.154;8.254;2022-12-11T06:24:01;-1.50;99.90
4934;DHT22;2482;49.154;8.254;2022-12-11T06:26:29;-1.50;99.90
4934;DHT22;2482;49.154;8.254;2022-12-11T06:28:57;-1.50;99.90
4934;DHT22;2482;49.154;8.254;2022-12-11T06:31:24;-1.50;99.90
4934;DHT22;2482;49.154;8.254;2022-12-11T06:33:51;-1.40;99.90
4934;DHT22;2482;49.154;8.254;2022-12-11T06:36:21;-1.40;99.90
4934;DHT22;2482;49.154;8.254;2022-12-11T06:38:49;-1.30;99.90
4934;DHT22;2482;49.154;8.254;2022-12-11T06:41:17;-1.40;99.90
4934;DHT22;2482;49.154;8.254;2022-12-11T06:43:44;-1.40;99.90
4934;DHT22;2482;49.154;8.254;2022-12-11T06:46:14;-1.30;99.90
4934;DHT22;2482;49.154;8.254;2022-12-11T06:48:43;-1.20;99.90
4934;DHT22;2482;49.154;8.254;2022-12-11T06:51:13;-1.40;99.90
4934;DHT22;2482;49.154;8.254;2022-12-11T06:53:41;-1.40;99.90
4934;DHT22;2482;49.154;8.254;2022-12-11T06:56:12;-1.40;99.90
4934;DHT22;2482;49.154;8.254;2022-12-11T06:58:41;-1.40;99.90
4934;DHT22;2482;49.154;8.254;2022-12-11T07:01:17;-1.40;99.90
4934;DHT22;2482;49.154;8.254;2022-12-11T07:03:51;-1.50;99.90
4934;DHT22;2482;49.154;8.254;2022-12-11T07:06:19;-1.30;99.90
4934;DHT22;2482;49.154;8.254;2022-12-11T07:08:46;-1.30;99.90
4934;DHT22;2482;49.154;8.254;2022-12-11T07:11:14;-1.40;99.90
4934;DHT22;2482;49.154;8.254;2022-12-11T07:13:43;-1.30;99.90
4934;DHT22;2482;49.154;8.254;2022-12-11T07:16:12;-1.30;99.90
4934;DHT22;2482;49.154;8.254;2022-12-11T07:18:48;-1.30;99.90
4934;DHT22;2482;49.154;8.254;2022-12-11T07:21:16;-1.30;99.90
4934;DHT22;2482;49.154;8.254;2022-12-11T07:23:44;-1.20;99.90
4934;DHT22;2482;49.154;8.254;2022-12-11T07:26:14;-1.10;99.90
4934;DHT22;2482;49.154;8.254;2022-12-11T07:28:42;-1.20;99.90
4934;DHT22;2482;49.154;8.254;2022-12-11T07:31:23;-1.20;99.90
4934;DHT22;2482;49.154;8.254;2022-12-11T07:33:59;-1.10;99.90
4934;DHT22;2482;49.154;8.254;2022-12-11T07:36:28;-1.20;99.90
4934;DHT22;2482;49.154;8.254;2022-12-11T07:38:56;-1.10;99.90
4934;DHT22;2482;49.154;8.254;2022-12-11T07:41:24;-1.20;99.90
4934;DHT22;2482;49.154;8.254;2022-12-11T07:43:55;-1.20;99.90
4934;DHT22;2482;49.154;8.254;2022-12-11T07:46:25;-1.20;99.90
4934;DHT22;2482;49.154;8.254;2022-12-11T07:48:53;-1.10;99.90
4934;DHT22;2482;49.154;8.254;2022-12-11T07:51:23;-1.20;99.90
4934;DHT22;2482;49.154;8.254;2022-12-11T07:53:56;-1.20;99.90
4934;DHT22;2482;49.154;8.254;2022-12-11T07:56:27;-1.10;99.90
4934;DHT22;2482;49.154;8.254;2022-12-11T07:58:57;-1.10;99.90
4934;DHT22;2482;49.154;8.254;2022-12-11T08:01:27;-1.10;99.90
4934;DHT22;2482;49.154;8.254;2022-12-11T08:03:56;-1.00;99.90
4934;DHT22;2482;49.154;8.254;2022-12-11T08:06:28;-1.00;99.90
4934;DHT22;2482;49.154;8.254;2022-12-11T08:08:58;-0.90;99.90
4934;DHT22;2482;49.154;8.254;2022-12-11T08:11:26;-0.90;99.90
4934;DHT22;2482;49.154;8.254;2022-12-11T08:13:54;-0.90;99.90
4934;DHT22;2482;49.154;8.254;2022-12-11T08:16:22;-0.80;99.90
4934;DHT22;2482;49.154;8.254;2022-12-11T08:18:49;-0.80;99.90
4934;DHT22;2482;49.154;8.254;2022-12-11T08:21:19;-0.70;99.90
4934;DHT22;2482;49.154;8.254;2022-12-11T08:23:49;-0.80;99.90
4934;DHT22;2482;49.154;8.254;2022-12-11T08:26:20;-0.70;99.90
4934;DHT22;2482;49.154;8.254;2022-12-11T08:28:49;-0.70;99.90
4934;DHT22;2482;49.154;8.254;2022-12-11T08:31:17;-0.70;99.90
4934;DHT22;2482;49.154;8.254;2022-12-11T08:33:45;-0.60;99.90
4934;DHT22;2482;49.154;8.254;2022-12-11T08:36:16;-0.60;99.90
4934;DHT22;2482;49.154;8.254;2022-12-11T08:38:44;-0.50;99.90
4934;DHT22;2482;49.154;8.254;2022-12-11T08:41:21;-0.60;99.90
4934;DHT22;2482;49.154;8.254;2022-12-11T08:43:50;-0.60;99.90
4934;DHT22;2482;49.154;8.254;2022-12-11T08:46:22;-0.70;99.90
4934;DHT22;2482;49.154;8.254;2022-12-11T08:48:51;-0.60;99.90
4934;DHT22;2482;49.154;8.254;2022-12-11T08:51:22;-0.50;99.90
4934;DHT22;2482;49.154;8.254;2022-12-11T08:53:54;-0.30;99.90
4934;DHT22;2482;49.154;8.254;2022-12-11T08:56:22;-0.30;99.90
4934;DHT22;2482;49.154;8.254;2022-12-11T08:58:50;-0.30;99.90
4934;DHT22;2482;49.154;8.254;2022-12-11T09:01:21;-0.30;99.90
4934;DHT22;2482;49.154;8.254;2022-12-11T09:03:50;-0.10;99.90
4934;DHT22;2482;49.154;8.254;2022-12-11T09:06:20;-0.10;99.90
4934;DHT22;2482;49.154;8.254;2022-12-11T09:08:50;-0.10;99.90
4934;DHT22;2482;49.154;8.254;2022-12-11T09:11:24;-0.10;99.90
4934;DHT22;2482;49.154;8.254;2022-12-11T09:13:54;-0.10;99.90
4934;DHT22;2482;49.154;8.254;2022-12-11T09:16:23;0.00;99.90
4934;DHT22;2482;49.154;8.254;2022-12-11T09:18:52;0.10;99.90
4934;DHT22;2482;49.154;8.254;2022-12-11T09:21:23;0.10;99.90
4934;DHT22;2482;49.154;8.254;2022-12-11T09:23:58;0.20;99.90
4934;DHT22;2482;49.154;8.254;2022-12-11T09:26:27;0.00;99.90
4934;DHT22;2482;49.154;8.254;2022-12-11T09:28:56;0.20;99.90
4934;DHT22;2482;49.154;8.254;2022-12-11T09:31:28;0.20;99.90
4934;DHT22;2482;49.154;8.254;2022-12-11T09:34:00;0.10;99.90
4934;DHT22;2482;49.154;8.254;2022-12-11T09:36:29;0.10;99.90
4934;DHT22;2482;49.154;8.254;2022-12-11T09:38:59;0.10;99.90
4934;DHT22;2482;49.154;8.254;2022-12-11T09:41:39;0.10;99.90
4934;DHT22;2482;49.154;8.254;2022-12-11T09:47:33;0.20;99.90
4934;DHT22;2482;49.154;8.254;2022-12-11T09:55:22;0.20;99.90
4934;DHT22;2482;49.154;8.254;2022-12-11T09:58:07;0.30;99.90
4934;DHT22;2482;49.154;8.254;2022-12-11T10:00:46;0.20;99.90
4934;DHT22;2482;49.154;8.254;2022-12-11T10:15:48;0.50;99.90
4934;DHT22;2482;49.154;8.254;2022-12-11T10:18:20;0.50;99.90
4934;DHT22;2482;49.154;8.254;2022-12-11T10:20:50;0.60;99.90
4934;DHT22;2482;49.154;8.254;2022-12-11T10:23:26;0.70;99.90
4934;DHT22;2482;49.154;8.254;2022-12-11T10:28:35;0.90;99.90
4934;DHT22;2482;49.154;8.254;2022-12-11T10:34:03;0.90;99.90
4934;DHT22;2482;49.154;8.254;2022-12-11T10:36:38;0.80;99.90
4934;DHT22;2482;49.154;8.254;2022-12-11T10:39:13;0.70;99.90
4934;DHT22;2482;49.154;8.254;2022-12-11T10:41:44;0.70;99.90
4934;DHT22;2482;49.154;8.254;2022-12-11T10:47:11;0.80;99.90
4934;DHT22;2482;49.154;8.254;2022-12-11T10:50:00;0.70;99.90
4934;DHT22;2482;49.154;8.254;2022-12-11T10:52:41;0.70;99.90
4934;DHT22;2482;49.154;8.254;2022-12-11T10:55:20;0.70;99.90
4934;DHT22;2482;49.154;8.254;2022-12-11T10:58:03;0.70;99.90
4934;DHT22;2482;49.154;8.254;2022-12-11T11:03:04;1.00;99.90
4934;DHT22;2482;49.154;8.254;2022-12-11T11:05:44;1.00;99.90
4934;DHT22;2482;49.154;8.254;2022-12-11T11:08:20;1.00;99.90
4934;DHT22;2482;49.154;8.254;2022-12-11T11:10:58;1.00;99.90
4934;DHT22;2482;49.154;8.254;2022-12-11T11:13:28;0.90;99.90
4934;DHT22;2482;49.154;8.254;2022-12-11T11:16:05;0.90;99.90
4934;DHT22;2482;49.154;8.254;2022-12-11T11:18:35;0.80;99.90
4934;DHT22;2482;49.154;8.254;2022-12-11T11:21:03;0.80;99.90
4934;DHT22;2482;49.154;8.254;2022-12-11T11:23:30;0.90;99.90
4934;DHT22;2482;49.154;8.254;2022-12-11T11:26:00;1.00;99.90
4934;DHT22;2482;49.154;8.254;2022-12-11T11:28:40;1.00;99.90
4934;DHT22;2482;49.154;8.254;2022-12-11T11:31:33;1.10;99.90
4934;DHT22;2482;49.154;8.254;2022-12-11T11:34:05;1.10;99.90
4934;DHT22;2482;49.154;8.254;2022-12-11T11:36:35;1.10;99.90
4934;DHT22;2482;49.154;8.254;2022-12-11T11:39:31;1.10;99.90
4934;DHT22;2482;49.154;8.254;2022-12-11T11:42:42;1.00;99.90
4934;DHT22;2482;49.154;8.254;2022-12-11T11:45:21;1.00;99.90
4934;DHT22;2482;49.154;8.254;2022-12-11T11:51:15;1.20;99.90
4934;DHT22;2482;49.154;8.254;2022-12-11T11:54:08;1.30;99.90
4934;DHT22;2482;49.154;8.254;2022-12-11T11:56:52;1.30;99.90
4934;DHT22;2482;49.154;8.254;2022-12-11T12:01:57;1.20;99.90
4934;DHT22;2482;49.154;8.254;2022-12-11T12:04:33;1.40;99.90
4934;DHT22;2482;49.154;8.254;2022-12-11T12:12:36;1.40;99.90
4934;DHT22;2482;49.154;8.254;2022-12-11T12:23:48;1.50;99.90
4934;DHT22;2482;49.154;8.254;2022-12-11T12:26:32;1.50;99.90
4934;DHT22;2482;49.154;8.254;2022-12-11T12:35:03;1.60;99.90
4934;DHT22;2482;49.154;8.254;2022-12-11T12:37:48;1.80;99.90
4934;DHT22;2482;49.154;8.254;2022-12-11T12:43:29;1.80;99.90
4934;DHT22;2482;49.154;8.254;2022-12-11T12:49:03;1.90;99.90
4934;DHT22;2482;49.154;8.254;2022-12-11T12:51:31;1.70;99.90
4934;DHT22;2482;49.154;8.254;2022-12-11T12:54:01;1.80;99.90
4934;DHT22;2482;49.154;8.254;2022-12-11T12:56:37;1.90;99.90
4934;DHT22;2482;49.154;8.254;2022-12-11T12:59:21;1.80;99.90
4934;DHT22;2482;49.154;8.254;2022-12-11T13:01:54;1.70;99.90
4934;DHT22;2482;49.154;8.254;2022-12-11T13:04:41;1.50;99.90
4934;DHT22;2482;49.154;8.254;2022-12-11T13:07:28;1.60;99.90
4934;DHT22;2482;49.154;8.254;2022-12-11T13:10:03;1.50;99.90
4934;DHT22;2482;49.154;8.254;2022-12-11T13:18:44;1.50;99.90
4934;DHT22;2482;49.154;8.254;2022-12-11T13:21:34;1.60;99.90
4934;DHT22;2482;49.154;8.254;2022-12-11T13:26:47;1.50;99.90
4934;DHT22;2482;49.154;8.254;2022-12-11T13:29:35;1.50;99.90
4934;DHT22;2482;49.154;8.254;2022-12-11T13:34:39;1.50;99.90
4934;DHT22;2482;49.154;8.254;2022-12-11T13:37:37;1.70;99.90
4934;DHT22;2482;49.154;8.254;2022-12-11T13:42:51;1.60;99.90
4934;DHT22;2482;49.154;8.254;2022-12-11T13:49:05;1.40;99.90
4934;DHT22;2482;49.154;8.254;2022-12-11T13:51:29;1.50;99.90
4934;DHT22;2482;49.154;8.254;2022-12-11T13:54:17;1.50;99.90
4934;DHT22;2482;49.154;8.254;2022-12-11T13:56:56;1.70;99.90
4934;DHT22;2482;49.154;8.254;2022-12-11T13:59:42;1.70;99.90
4934;DHT22;2482;49.154;8.254;2022-12-11T14:04:51;1.50;99.90
4934;DHT22;2482;49.154;8.254;2022-12-11T14:07:33;1.60;99.90
4934;DHT22;2482;49.154;8.254;2022-12-11T14:10:15;1.70;99.90
4934;DHT22;2482;49.154;8.254;2022-12-11T14:12:58;1.50;99.90
4934;DHT22;2482;49.154;8.254;2022-12-11T14:15:31;1.50;99.90
4934;DHT22;2482;49.154;8.254;2022-12-11T14:18:01;1.40;99.90
4934;DHT22;2482;49.154;8.254;2022-12-11T14:20:31;1.30;99.90
4934;DHT22;2482;49.154;8.254;2022-12-11T14:28:28;1.60;99.90
4934;DHT22;2482;49.154;8.254;2022-12-11T14:31:03;1.60;99.90
4934;DHT22;2482;49.154;8.254;2022-12-11T14:33:37;1.30;99.90
4934;DHT22;2482;49.154;8.254;2022-12-11T14:36:08;1.30;99.90
4934;DHT22;2482;49.154;8.254;2022-12-11T14:38:45;1.40;99.90
4934;DHT22;2482;49.154;8.254;2022-12-11T14:41:20;1.40;99.90
4934;DHT22;2482;49.154;8.254;2022-12-11T14:43:56;1.40;99.90
4934;DHT22;2482;49.154;8.254;2022-12-11T14:49:02;1.20;99.90
4934;DHT22;2482;49.154;8.254;2022-12-11T14:51:37;1.10;99.90
4934;DHT22;2482;49.154;8.254;2022-12-11T14:54:10;1.10;99.90
4934;DHT22;2482;49.154;8.254;2022-12-11T14:56:46;1.10;99.90
4934;DHT22;2482;49.154;8.254;2022-12-11T14:59:19;1.10;99.90
4934;DHT22;2482;49.154;8.254;2022-12-11T15:02:02;1.10;99.90
4934;DHT22;2482;49.154;8.254;2022-12-11T15:04:43;1.20;99.90
4934;DHT22;2482;49.154;8.254;2022-12-11T15:07:28;1.20;99.90
4934;DHT22;2482;49.154;8.254;2022-12-11T15:09:55;1.20;99.90
4934;DHT22;2482;49.154;8.254;2022-12-11T15:12:22;1.20;99.90
4934;DHT22;2482;49.154;8.254;2022-12-11T15:15:02;1.20;99.90
4934;DHT22;2482;49.154;8.254;2022-12-11T15:17:31;1.40;99.90
4934;DHT22;2482;49.154;8.254;2022-12-11T15:20:08;1.10;99.90
4934;DHT22;2482;49.154;8.254;2022-12-11T15:22:41;1.10;99.90
4934;DHT22;2482;49.154;8.254;2022-12-11T15:25:26;1.00;99.90
4934;DHT22;2482;49.154;8.254;2022-12-11T15:27:56;1.00;99.90
4934;DHT22;2482;49.154;8.254;2022-12-11T15:30:26;1.10;99.90
4934;DHT22;2482;49.154;8.254;2022-12-11T15:33:17;1.00;99.90
4934;DHT22;2482;49.154;8.254;2022-12-11T15:38:51;1.00;99.90
4934;DHT22;2482;49.154;8.254;2022-12-11T15:41:19;0.90;99.90
4934;DHT22;2482;49.154;8.254;2022-12-11T15:43:47;0.80;99.90
4934;DHT22;2482;49.154;8.254;2022-12-11T15:46:18;1.00;99.90
4934;DHT22;2482;49.154;8.254;2022-12-11T15:48:49;0.90;99.90
4934;DHT22;2482;49.154;8.254;2022-12-11T15:51:16;0.80;99.90
4934;DHT22;2482;49.154;8.254;2022-12-11T15:53:43;0.80;99.90
4934;DHT22;2482;49.154;8.254;2022-12-11T15:56:17;0.80;99.90
4934;DHT22;2482;49.154;8.254;2022-12-11T15:58:45;0.80;99.90
4934;DHT22;2482;49.154;8.254;2022-12-11T16:01:13;0.80;99.90
4934;DHT22;2482;49.154;8.254;2022-12-11T16:03:40;0.90;99.90
4934;DHT22;2482;49.154;8.254;2022-12-11T16:06:11;0.90;99.90
4934;DHT22;2482;49.154;8.254;2022-12-11T16:08:39;0.80;99.90
4934;DHT22;2482;49.154;8.254;2022-12-11T16:11:06;0.80;99.90
4934;DHT22;2482;49.154;8.254;2022-12-11T16:13:33;0.90;99.90
4934;DHT22;2482;49.154;8.254;2022-12-11T16:16:00;1.00;99.90
4934;DHT22;2482;49.154;8.254;2022-12-11T16:18:27;0.80;99.90
4934;DHT22;2482;49.154;8.254;2022-12-11T16:20:53;0.90;99.90
4934;DHT22;2482;49.154;8.254;2022-12-11T16:23:20;0.80;99.90
4934;DHT22;2482;49.154;8.254;2022-12-11T16:25:48;0.90;99.90
4934;DHT22;2482;49.154;8.254;2022-12-11T16:28:17;0.90;99.90
4934;DHT22;2482;49.154;8.254;2022-12-11T16:30:46;0.80;99.90
4934;DHT22;2482;49.154;8.254;2022-12-11T16:33:14;0.80;99.90
4934;DHT22;2482;49.154;8.254;2022-12-11T16:35:41;0.70;99.90
4934;DHT22;2482;49.154;8.254;2022-12-11T16:38:09;0.90;99.90
4934;DHT22;2482;49.154;8.254;2022-12-11T16:40:37;1.00;99.90
4934;DHT22;2482;49.154;8.254;2022-12-11T16:43:04;0.90;99.90
4934;DHT22;2482;49.154;8.254;2022-12-11T16:45:32;0.80;99.90
4934;DHT22;2482;49.154;8.254;2022-12-11T16:48:02;0.90;99.90
4934;DHT22;2482;49.154;8.254;2022-12-11T16:50:30;1.00;99.90
4934;DHT22;2482;49.154;8.254;2022-12-11T16:52:57;0.80;99.90
4934;DHT22;2482;49.154;8.254;2022-12-11T16:55:25;0.70;99.90
4934;DHT22;2482;49.154;8.254;2022-12-11T16:57:51;0.90;99.90
4934;DHT22;2482;49.154;8.254;2022-12-11T17:00:18;0.80;99.90
4934;DHT22;2482;49.154;8.254;2022-12-11T17:02:46;0.70;99.90
4934;DHT22;2482;49.154;8.254;2022-12-11T17:05:13;0.90;99.90
4934;DHT22;2482;49.154;8.254;2022-12-11T17:07:41;0.70;99.90
4934;DHT22;2482;49.154;8.254;2022-12-11T17:10:08;0.50;99.90
4934;DHT22;2482;49.154;8.254;2022-12-11T17:12:35;0.80;99.90
4934;DHT22;2482;49.154;8.254;2022-12-11T17:15:03;0.60;99.90
4934;DHT22;2482;49.154;8.254;2022-12-11T17:17:31;0.70;99.90
4934;DHT22;2482;49.154;8.254;2022-12-11T17:19:58;0.70;99.90
4934;DHT22;2482;49.154;8.254;2022-12-11T17:22:25;0.80;99.90
4934;DHT22;2482;49.154;8.254;2022-12-11T17:24:52;0.60;99.90
4934;DHT22;2482;49.154;8.254;2022-12-11T17:27:23;0.60;99.90
4934;DHT22;2482;49.154;8.254;2022-12-11T17:29:49;0.60;99.90
4934;DHT22;2482;49.154;8.254;2022-12-11T17:32:17;0.30;99.90
4934;DHT22;2482;49.154;8.254;2022-12-11T17:34:45;0.30;99.90
4934;DHT22;2482;49.154;8.254;2022-12-11T17:37:16;0.30;99.90
4934;DHT22;2482;49.154;8.254;2022-12-11T17:39:43;0.20;99.90
4934;DHT22;2482;49.154;8.254;2022-12-11T17:42:12;0.30;99.90
4934;DHT22;2482;49.154;8.254;2022-12-11T17:44:39;0.20;99.90
4934;DHT22;2482;49.154;8.254;2022-12-11T17:47:06;0.20;99.90
4934;DHT22;2482;49.154;8.254;2022-12-11T17:49:38;0.20;99.90
4934;DHT22;2482;49.154;8.254;2022-12-11T17:52:06;0.40;99.90
4934;DHT22;2482;49.154;8.254;2022-12-11T17:54:33;0.50;99.90
4934;DHT22;2482;49.154;8.254;2022-12-11T17:57:00;0.50;99.90
4934;DHT22;2482;49.154;8.254;2022-12-11T17:59:27;0.40;99.90
4934;DHT22;2482;49.154;8.254;2022-12-11T18:01:54;0.20;99.90
4934;DHT22;2482;49.154;8.254;2022-12-11T18:04:21;0.20;99.90
4934;DHT22;2482;49.154;8.254;2022-12-11T18:06:49;0.20;99.90
4934;DHT22;2482;49.154;8.254;2022-12-11T18:09:16;0.10;99.90
4934;DHT22;2482;49.154;8.254;2022-12-11T18:11:43;0.10;99.90
4934;DHT22;2482;49.154;8.254;2022-12-11T18:14:14;-0.10;99.90
4934;DHT22;2482;49.154;8.254;2022-12-11T18:16:43;-0.10;99.90
4934;DHT22;2482;49.154;8.254;2022-12-11T18:19:10;-0.10;99.90
4934;DHT22;2482;49.154;8.254;2022-12-11T18:21:40;-0.10;99.90
4934;DHT22;2482;49.154;8.254;2022-12-11T18:24:09;-0.10;99.90
4934;DHT22;2482;49.154;8.254;2022-12-11T18:26:36;-0.20;99.90
4934;DHT22;2482;49.154;8.254;2022-12-11T18:29:04;-0.10;99.90
4934;DHT22;2482;49.154;8.254;2022-12-11T18:31:31;-0.10;99.90